createdAt,value
2019-03-29T00:07:39.351Z,9.06
2019-03-29T00:12:39.450Z,9.11
2019-03-29T00:17:45.233Z,9.12
2019-03-29T00:22:51.197Z,9.18
2019-03-29T00:27:57.172Z,9.07
2019-03-29T00:33:03.052Z,9.08
2019-03-29T00:38:08.822Z,9.10
2019-03-29T00:43:15.720Z,9.12
2019-03-29T00:48:21.967Z,9.09
2019-03-29T00:53:27.977Z,9.01
2019-03-29T00:58:34.130Z,9.08
2019-03-29T01:03:40.084Z,9.02
2019-03-29T01:08:45.871Z,8.85
2019-03-29T01:13:51.695Z,8.89
2019-03-29T01:18:57.623Z,8.85
2019-03-29T01:24:03.557Z,8.88
2019-03-29T01:29:09.373Z,8.90
2019-03-29T01:34:15.366Z,8.83
2019-03-29T01:39:21.113Z,8.96
2019-03-29T01:44:27.937Z,8.94
2019-03-29T01:49:33.873Z,8.99
2019-03-29T01:54:39.747Z,8.98
2019-03-29T01:59:45.512Z,9.01
2019-03-29T02:04:51.388Z,9.12
2019-03-29T02:09:57.263Z,9.05
2019-03-29T02:15:03.023Z,9.24
2019-03-29T02:20:09.404Z,9.18
2019-03-29T02:25:15.329Z,9.14
2019-03-29T02:30:21.992Z,9.14
2019-03-29T02:35:28.060Z,9.12
2019-03-29T02:40:33.933Z,9.04
2019-03-29T02:45:39.851Z,9.08
2019-03-29T02:50:45.654Z,9.16
2019-03-29T02:55:51.681Z,9.07
2019-03-29T03:00:57.505Z,8.98
2019-03-29T03:06:03.305Z,9.07
2019-03-29T03:11:09.149Z,9.12
2019-03-29T03:16:16.350Z,9.09
2019-03-29T03:21:23.302Z,9.05
2019-03-29T03:26:29.128Z,9.10
2019-03-29T03:31:35.006Z,9.13
2019-03-29T03:36:40.862Z,9.04
2019-03-29T03:41:46.705Z,9.05
2019-03-29T03:46:52.496Z,9.10
2019-03-29T03:51:58.809Z,9.01
2019-03-29T03:57:05.895Z,9.03
2019-03-29T04:02:11.747Z,9.10
2019-03-29T04:07:17.623Z,9.01
2019-03-29T04:12:23.546Z,9.00
2019-03-29T04:17:29.674Z,9.10
2019-03-29T04:22:35.548Z,9.00
2019-03-29T04:27:41.512Z,9.01
2019-03-29T04:32:47.442Z,9.17
2019-03-29T04:37:53.415Z,9.08
2019-03-29T04:43:00.251Z,9.06
2019-03-29T04:48:06.131Z,8.98
2019-03-29T04:53:12.040Z,8.97
2019-03-29T04:58:18.260Z,8.96
2019-03-29T05:03:24.091Z,9.05
2019-03-29T05:08:29.961Z,9.02
2019-03-29T05:13:35.902Z,9.05
2019-03-29T05:18:41.883Z,9.10
2019-03-29T05:23:47.680Z,9.02
2019-03-29T05:28:53.518Z,8.98
2019-03-29T05:33:59.436Z,9.04
2019-03-29T05:39:07.122Z,9.06
2019-03-29T05:44:12.889Z,9.01
2019-03-29T05:49:18.867Z,9.10
2019-03-29T05:54:25.234Z,9.17
2019-03-29T05:59:31.291Z,9.12
2019-03-29T06:04:37.304Z,9.18
2019-03-29T06:09:43.398Z,9.20
2019-03-29T06:14:49.412Z,9.30
2019-03-29T06:19:55.440Z,9.38
2019-03-29T06:25:01.327Z,9.40
2019-03-29T06:30:08.790Z,9.39
2019-03-29T06:35:14.700Z,9.39
2019-03-29T06:40:26.960Z,9.41
2019-03-29T06:45:46.555Z,9.50
2019-03-29T06:50:40.507Z,9.59
2019-03-29T06:55:46.641Z,9.66
2019-03-29T07:00:52.617Z,9.71
2019-03-29T07:05:58.481Z,9.59
2019-03-29T07:11:16.531Z,9.76
2019-03-29T07:16:12.056Z,9.87
2019-03-29T07:21:21.845Z,9.90
2019-03-29T07:26:25.463Z,9.98
2019-03-29T07:31:32.121Z,10.01
2019-03-29T07:36:37.996Z,10.10
2019-03-29T07:41:43.871Z,10.13
2019-03-29T07:46:49.853Z,10.26
2019-03-29T07:51:55.617Z,10.40
2019-03-29T07:57:01.394Z,10.36
2019-03-29T08:02:07.152Z,10.39
2019-03-29T08:07:26.358Z,10.50
2019-03-29T08:12:22.036Z,10.70
2019-03-29T08:17:28.468Z,10.59
2019-03-29T08:22:34.390Z,10.46
2019-03-29T08:27:41.116Z,10.72
2019-03-29T08:32:46.904Z,10.90
2019-03-29T08:37:52.859Z,10.95
2019-03-29T08:42:59.854Z,10.91
2019-03-29T08:48:06.889Z,10.92
2019-03-29T08:53:12.932Z,10.99
2019-03-29T08:58:18.759Z,10.95
2019-03-29T09:03:25.048Z,11.30
2019-03-29T09:08:30.954Z,11.45
2019-03-29T09:13:36.940Z,11.25
2019-03-29T09:18:42.999Z,11.34
2019-03-29T09:23:49.123Z,11.80
2019-03-29T09:28:55.103Z,11.67
2019-03-29T09:34:01.049Z,11.77
2019-03-29T09:39:07.967Z,12.03
2019-03-29T09:44:13.787Z,12.24
2019-03-29T09:49:19.777Z,12.16
2019-03-29T09:54:25.580Z,12.56
2019-03-29T09:59:32.578Z,12.23
2019-03-29T10:04:38.423Z,12.94
2019-03-29T10:09:44.580Z,12.59
2019-03-29T10:14:50.557Z,12.67
2019-03-29T10:19:56.502Z,12.79
2019-03-29T10:25:02.876Z,13.02
2019-03-29T10:30:10.558Z,13.04
2019-03-29T10:35:16.515Z,13.10
2019-03-29T10:40:22.425Z,13.57
2019-03-29T10:45:28.350Z,13.17
2019-03-29T10:50:34.215Z,13.10
2019-03-29T10:55:40.193Z,12.93
2019-03-29T11:00:46.268Z,12.99
2019-03-29T11:05:52.401Z,13.20
2019-03-29T11:10:58.262Z,13.04
2019-03-29T11:16:04.494Z,13.21
2019-03-29T11:21:11.122Z,13.05
2019-03-29T11:26:17.161Z,12.82
2019-03-29T11:31:25.525Z,12.88
2019-03-29T11:36:30.685Z,12.67
2019-03-29T11:41:36.723Z,12.97
2019-03-29T11:46:42.887Z,13.21
2019-03-29T11:51:48.990Z,12.99
2019-03-29T11:56:55.880Z,13.05
2019-03-29T12:02:01.937Z,12.96
2019-03-29T12:07:07.714Z,13.00
2019-03-29T12:12:13.667Z,13.06
2019-03-29T12:17:19.862Z,13.16
2019-03-29T12:22:25.731Z,13.06
2019-03-29T12:27:31.810Z,12.77
2019-03-29T12:32:37.681Z,13.05
2019-03-29T12:37:43.547Z,13.08
2019-03-29T12:42:49.486Z,12.84
2019-03-29T12:47:55.438Z,12.84
2019-03-29T12:53:01.156Z,12.88
2019-03-29T12:58:07.235Z,12.85
2019-03-29T13:03:13.134Z,12.78
2019-03-29T13:08:19.082Z,12.74
2019-03-29T13:13:24.851Z,12.85
2019-03-29T13:18:30.716Z,13.18
2019-03-29T13:23:36.599Z,12.80
2019-03-29T13:28:42.480Z,12.97
2019-03-29T13:33:48.342Z,12.98
2019-03-29T13:38:54.306Z,13.13
2019-03-29T13:44:00.188Z,13.02
2019-03-29T13:49:06.151Z,13.16
2019-03-29T13:54:12.230Z,12.83
2019-03-29T13:59:18.179Z,13.18
2019-03-29T14:04:23.978Z,13.05
2019-03-29T14:09:29.839Z,12.78
2019-03-29T14:14:38.536Z,12.77
2019-03-29T14:19:43.233Z,12.84
2019-03-29T14:24:49.093Z,12.79
2019-03-29T14:30:04.115Z,12.60
2019-03-29T14:35:08.680Z,12.63
2019-03-29T14:40:14.926Z,12.62
2019-03-29T14:45:20.707Z,12.76
2019-03-29T14:50:26.571Z,12.99
2019-03-29T14:55:32.557Z,12.57
2019-03-29T15:00:41.617Z,12.86
2019-03-29T15:05:49.185Z,12.81
2019-03-29T15:10:54.977Z,12.63
2019-03-29T15:16:00.925Z,12.61
2019-03-29T15:21:10.294Z,12.60
2019-03-29T15:26:14.719Z,12.49
2019-03-29T15:31:20.916Z,12.59
2019-03-29T15:36:28.942Z,12.67
2019-03-29T15:41:34.884Z,12.47
2019-03-29T15:46:40.756Z,12.35
2019-03-29T15:51:46.733Z,12.50
2019-03-29T15:56:52.622Z,12.54
2019-03-29T16:01:58.585Z,12.48
2019-03-29T16:07:04.481Z,12.48
2019-03-29T16:12:10.660Z,12.50
2019-03-29T16:17:16.591Z,12.51
2019-03-29T16:22:22.975Z,12.12
2019-03-29T16:27:28.846Z,12.12
2019-03-29T16:32:34.769Z,12.20
2019-03-29T16:37:41.426Z,12.12
2019-03-29T16:42:47.427Z,12.13
2019-03-29T16:47:53.403Z,11.99
2019-03-29T16:52:59.331Z,12.17
2019-03-29T16:58:05.380Z,11.98
2019-03-29T17:03:11.419Z,12.04
2019-03-29T17:08:17.431Z,11.96
2019-03-29T17:13:23.451Z,12.02
2019-03-29T17:18:29.857Z,11.95
2019-03-29T17:23:35.847Z,11.89
2019-03-29T17:28:41.728Z,11.97
2019-03-29T17:33:47.734Z,11.99
2019-03-29T17:38:57.875Z,11.92
2019-03-29T17:44:05.948Z,11.85
2019-03-29T17:49:12.694Z,11.85
2019-03-29T17:54:18.604Z,11.96
2019-03-29T17:59:24.623Z,11.88
2019-03-29T18:04:30.634Z,11.79
2019-03-29T18:09:36.406Z,11.85
2019-03-29T18:14:42.329Z,11.88
2019-03-29T18:19:48.323Z,11.85
2019-03-29T18:24:54.231Z,11.82
2019-03-29T18:30:00.378Z,11.80
2019-03-29T18:35:08.024Z,11.94
2019-03-29T18:40:22.704Z,11.74
2019-03-29T18:45:28.675Z,11.75
2019-03-29T18:50:34.643Z,11.68
2019-03-29T18:55:40.439Z,11.64
2019-03-29T19:00:46.331Z,11.66
2019-03-29T19:05:52.356Z,11.56
2019-03-29T19:10:58.228Z,11.49
2019-03-29T19:16:04.454Z,11.50
2019-03-29T19:21:11.317Z,11.32
2019-03-29T19:26:17.170Z,11.18
2019-03-29T19:31:23.155Z,11.20
2019-03-29T19:36:29.015Z,11.14
2019-03-29T19:41:34.806Z,11.04
2019-03-29T19:46:41.690Z,10.89
2019-03-29T19:51:47.561Z,10.81
2019-03-29T19:56:53.436Z,10.75
2019-03-29T20:01:59.314Z,10.71
2019-03-29T20:07:05.333Z,10.68
2019-03-29T20:12:11.257Z,10.56
2019-03-29T20:17:27.387Z,10.63
2019-03-29T20:22:24.809Z,10.49
2019-03-29T20:27:30.806Z,10.44
2019-03-29T20:32:36.842Z,10.37
2019-03-29T20:37:43.429Z,10.39
2019-03-29T20:42:50.355Z,10.37
2019-03-29T20:47:56.235Z,10.25
2019-03-29T20:53:02.225Z,10.20
2019-03-29T20:58:08.077Z,10.09
2019-03-29T21:03:14.116Z,10.08
2019-03-29T21:08:20.149Z,10.10
2019-03-29T21:13:26.066Z,10.02
2019-03-29T21:18:33.021Z,9.97
2019-03-29T21:23:39.009Z,9.98
2019-03-29T21:28:45.154Z,10.07
2019-03-29T21:33:50.997Z,9.98
2019-03-29T21:38:56.899Z,9.93
2019-03-29T21:44:02.892Z,9.90
2019-03-29T21:49:10.894Z,9.82
2019-03-29T21:54:17.283Z,9.82
2019-03-29T21:59:25.113Z,9.77
2019-03-29T22:04:31.058Z,9.78
2019-03-29T22:09:37.500Z,9.71
2019-03-29T22:14:43.729Z,9.71
2019-03-29T22:19:49.697Z,9.69
2019-03-29T22:24:55.795Z,9.74
2019-03-29T22:30:01.646Z,9.68
2019-03-29T22:35:08.503Z,9.72
2019-03-29T22:40:14.396Z,9.64
2019-03-29T22:45:20.442Z,9.59
2019-03-29T22:50:26.296Z,9.50
2019-03-29T22:55:32.321Z,9.59
2019-03-29T23:00:42.704Z,9.53
2019-03-29T23:05:49.442Z,9.52
2019-03-29T23:10:55.417Z,9.57
2019-03-29T23:16:02.821Z,9.54
2019-03-29T23:21:08.855Z,9.36
2019-03-29T23:26:14.663Z,9.43
2019-03-29T23:31:20.594Z,9.41
2019-03-29T23:36:26.625Z,9.32
2019-03-29T23:41:32.648Z,9.33
2019-03-29T23:46:38.724Z,9.33
2019-03-29T23:51:44.598Z,9.26
2019-03-29T23:56:50.639Z,9.28
